This is the latest recevied weather packets stored in our database for station/object SP9EPI-13. If no packets are shown the sender has not sent any weather packets the latest 10 day(s).
| Time | Temp. | Humidity | Pressure | Rain* | Wind** | Luminosity | Snow |
|---|---|---|---|---|---|---|---|
| 1777409402 | 2.22° C | 70% | 1019.6 hPa | - | - | - | - |
| 1777408801 | 2.22° C | 68% | 1019.6 hPa | - | - | - | - |
| 1777408200 | 2.78° C | 60% | 1019.6 hPa | - | - | - | - |
| 1777407601 | 5° C | 52% | 1019.6 hPa | - | - | - | - |
| 1777407000 | 3.89° C | 52% | 1019.6 hPa | - | - | - | - |
| 1777406400 | 5° C | 50% | 1019.3 hPa | - | - | - | - |
| 1777405801 | 6.11° C | 46% | 1019.3 hPa | - | - | - | - |
| 1777405200 | 6.11° C | 45% | 1019.3 hPa | - | - | - | - |
| 1777404601 | 6.11° C | 44% | 1019.3 hPa | - | - | - | - |
| 1777404001 | 7.22° C | 43% | 1019.3 hPa | - | - | - | - |
| 1777403400 | 7.22° C | 42% | 1018.9 hPa | - | - | - | - |
| 1777402800 | 7.22° C | 41% | 1018.9 hPa | - | - | - | - |
| 1777402201 | 6.11° C | 42% | 1018.9 hPa | - | - | - | - |
| 1777401601 | 5° C | 45% | 1018.2 hPa | - | - | - | - |
| 1777401001 | 6.11° C | 41% | 1018.2 hPa | - | - | - | - |
| 1777400400 | 7.22° C | 40% | 1018.2 hPa | - | - | - | - |
| 1777399801 | 7.22° C | 38% | 1018.2 hPa | - | - | - | - |
| 1777399201 | 7.78° C | 37% | 1017.9 hPa | - | - | - | - |
| 1777398600 | 8.89° C | 35% | 1017.9 hPa | - | - | - | - |
| 1777398001 | 10° C | 32% | 1017.9 hPa | - | - | - | - |
| 1777397401 | 10° C | 30% | 1017.9 hPa | - | - | - | - |
| 1777396801 | 10° C | 29% | 1017.9 hPa | - | - | - | - |
| 1777396201 | 11.11° C | 29% | 1017.6 hPa | - | - | - | - |
| 1777394401 | 12.22° C | 26% | 1017.6 hPa | - | - | - | - |
| 1777393800 | 12.22° C | 26% | 1017.6 hPa | - | - | - | - |
* Rain since midnight (hover to see other rain measurements)
** Current wind speed in m/s (hover to see current wind gust speed)